Eastport, Maryland
Current Conditions -  °F | °C
As of 12:54 PM on Thursday 29 Jan 2015 (Local Time) from KNAK Reporting Station
Broken Clouds Broken Clouds  
Wind Chill: 25°   Ceiling: 12000
Heat Index: 33°   Visibility: 10mi
Dew Point: 15°   Wind: 9mph
Humidity: 48%   Direction: 170°S
Pressure: 30.23"   Gusts: NA
Location:  38.946°N, 76.491°W
Report Text: KNAK 291754Z AUTO 17008KT 10SM BKN120 01/M09 A3023 RMK AO2 SLP238 T00061094 10006 21056 58030
Loading
Personal Weather Stations






























Interactive Weather Map New forecast layout! Learn more

10-Day Weather Forecast

Advertisements
Track Severe Weather on mobile